Time;durP1;ratioP1;P1;durP2;ratioP2;P2;SDS_P1;SDS_P2;PMS_P1;PMS_P2;Temp;Humidity;BMP_temperature;BMP_pressure;BME280_temperature;BME280_humidity;BME280_pressure;Samples;Min_cycle;Max_cycle;Signal;HPM_P1;HPM_P2
2023/12/28 00:00:47;;;;;;;;;;;;;;;24.61;18.93;98425.63;5098797;28;19927;-87
2023/12/28 00:03:13;;;;;;;;;;;;;;;24.62;18.99;98439.22;5100557;28;20015;-87
2023/12/28 00:05:39;;;;;;;;;;;;;;;24.70;18.81;98437.06;5095638;28;20011;-88
2023/12/28 00:08:05;;;;;;;;;;;;;;;24.76;18.92;98438.22;5099264;28;19924;-88
2023/12/28 00:10:31;;;;;;;;;;;;;;;24.63;18.74;98426.78;5100652;28;20370;-88
2023/12/28 00:12:58;;;;;;;;;;;;;;;24.05;19.41;98433.78;5102023;28;19923;-88
2023/12/28 00:15:24;;;;;;;;;;;;;;;23.87;19.77;98435.28;5095638;28;20288;-87
2023/12/28 00:17:50;;;;;;;;;;;;;;;24.08;19.67;98425.75;5097280;27;19926;-87
2023/12/28 00:20:16;;;;;;;;;;;;;;;24.26;19.40;98429.03;5104821;28;19928;-88
2023/12/28 00:22:42;;;;;;;;;;;;;;;24.53;19.42;98426.94;5100475;27;19950;-87
2023/12/28 00:25:08;;;;;;;;;;;;;;;24.59;19.00;98431.66;5099595;27;20053;-87
2023/12/28 00:27:35;;;;;;;;;;;;;;;24.57;19.29;98422.09;5097237;27;20007;-86
2023/12/28 00:30:01;;;;;;;;;;;;;;;24.68;19.36;98428.28;5099910;27;19915;-88
2023/12/28 00:32:27;;;;;;;;;;;;;;;24.77;19.03;98417.31;5101136;27;20402;-88
2023/12/28 00:34:53;;;;;;;;;;;;;;;25.05;18.45;98413.94;5102386;27;19935;-87
2023/12/28 00:37:19;;;;;;;;;;;;;;;24.89;18.75;98410.25;5105309;28;20506;-88
2023/12/28 00:39:46;;;;;;;;;;;;;;;24.95;18.79;98408.53;5109120;27;19919;-88
2023/12/28 00:42:13;;;;;;;;;;;;;;;25.18;18.55;98408.47;5102417;27;19926;-88
2023/12/28 00:44:38;;;;;;;;;;;;;;;24.66;18.81;98397.03;5103099;28;20271;-88
2023/12/28 00:47:06;;;;;;;;;;;;;;;24.51;18.88;98401.31;5104422;27;19920;-88
2023/12/28 00:49:32;;;;;;;;;;;;;;;24.51;19.09;98396.50;5100139;28;20325;-88
2023/12/28 00:51:58;;;;;;;;;;;;;;;24.57;18.97;98394.00;5102576;28;19931;-86
2023/12/28 00:54:24;;;;;;;;;;;;;;;24.42;19.47;98392.66;5099494;27;21455;-86
2023/12/28 00:56:50;;;;;;;;;;;;;;;24.38;19.58;98394.75;5100733;27;20012;-87
2023/12/28 00:59:16;;;;;;;;;;;;;;;24.50;19.52;98396.94;5098366;28;19968;-87
2023/12/28 01:01:42;;;;;;;;;;;;;;;24.73;19.31;98388.47;5095648;28;19963;-87
2023/12/28 01:04:09;;;;;;;;;;;;;;;24.71;19.17;98390.94;5108065;28;20408;-87
2023/12/28 01:06:34;;;;;;;;;;;;;;;24.82;19.15;98382.31;5105598;27;19924;-87
2023/12/28 01:09:00;;;;;;;;;;;;;;;24.74;19.39;98376.81;5097512;28;19927;-87
2023/12/28 01:11:26;;;;;;;;;;;;;;;24.42;19.60;98365.41;5098592;28;19927;-87
2023/12/28 01:13:53;;;;;;;;;;;;;;;24.46;19.85;98359.72;5098234;27;20291;-86
2023/12/28 01:16:19;;;;;;;;;;;;;;;24.80;19.41;98357.47;5087560;28;19933;-87
2023/12/28 01:18:45;;;;;;;;;;;;;;;24.62;19.46;98346.56;5097922;27;19920;-87
2023/12/28 01:21:11;;;;;;;;;;;;;;;24.81;19.29;98336.56;5099608;27;20390;-87
2023/12/28 01:23:37;;;;;;;;;;;;;;;24.87;19.28;98328.44;5095343;27;19969;-87
2023/12/28 01:26:03;;;;;;;;;;;;;;;24.86;19.22;98324.84;5100826;27;20294;-87
2023/12/28 01:28:29;;;;;;;;;;;;;;;25.11;19.38;98318.69;5097153;28;20375;-87
2023/12/28 01:30:55;;;;;;;;;;;;;;;24.99;19.15;98324.97;5096893;28;19965;-87
2023/12/28 01:33:21;;;;;;;;;;;;;;;24.95;19.53;98322.22;5087496;28;19920;-87
2023/12/28 01:35:47;;;;;;;;;;;;;;;24.63;19.81;98322.88;5101216;27;20018;-87
2023/12/28 01:38:13;;;;;;;;;;;;;;;24.06;20.20;98325.19;5095900;27;19997;-88
2023/12/28 01:40:43;;;;;;;;;;;;;;;24.04;20.50;98319.16;5099455;28;19927;-89
2023/12/28 01:43:09;;;;;;;;;;;;;;;24.00;20.91;98316.44;5104110;27;20022;-89
2023/12/28 01:45:35;;;;;;;;;;;;;;;24.36;20.45;98302.59;5098148;27;20372;-89
2023/12/28 01:48:01;;;;;;;;;;;;;;;24.72;19.93;98308.25;5101192;28;19930;-89
2023/12/28 01:50:27;;;;;;;;;;;;;;;24.89;19.79;98306.31;5099711;27;20015;-89
2023/12/28 01:52:55;;;;;;;;;;;;;;;24.97;19.67;98302.91;5095766;28;19926;-88
2023/12/28 01:55:21;;;;;;;;;;;;;;;25.05;19.37;98306.38;5098736;28;20002;-88
2023/12/28 01:57:48;;;;;;;;;;;;;;;25.05;19.37;98293.13;5099699;28;19959;-88
2023/12/28 02:00:14;;;;;;;;;;;;;;;25.14;18.90;98298.94;5099170;28;20361;-89
2023/12/28 02:02:41;;;;;;;;;;;;;;;25.10;18.80;98289.81;5095998;28;20031;-88
2023/12/28 02:05:08;;;;;;;;;;;;;;;24.86;19.35;98298.75;5096615;28;20014;-88
2023/12/28 02:07:36;;;;;;;;;;;;;;;24.74;19.26;98288.94;5099222;28;19943;-88
2023/12/28 02:10:02;;;;;;;;;;;;;;;24.82;19.17;98287.63;5097094;27;20379;-89
2023/12/28 02:12:28;;;;;;;;;;;;;;;24.86;19.40;98279.91;5096760;27;19931;-87
2023/12/28 02:14:54;;;;;;;;;;;;;;;24.97;19.27;98266.41;5096077;28;19942;-89
2023/12/28 02:17:47;;;;;;;;;;;;;;;24.99;19.02;98268.78;5097411;28;19920;-88
2023/12/28 02:20:14;;;;;;;;;;;;;;;24.71;19.18;98265.34;5095473;28;20387;-90
2023/12/28 02:22:40;;;;;;;;;;;;;;;24.84;19.06;98253.47;5097856;28;19920;-88
2023/12/28 02:25:06;;;;;;;;;;;;;;;24.80;19.08;98258.38;5097233;28;19923;-89
2023/12/28 02:27:37;;;;;;;;;;;;;;;24.55;19.22;98261.72;5077379;28;19939;-90
2023/12/28 02:30:04;;;;;;;;;;;;;;;24.74;19.38;98258.84;5096296;28;19916;-86
2023/12/28 02:32:35;;;;;;;;;;;;;;;25.01;19.05;98258.72;5097289;28;20002;-90
2023/12/28 02:35:05;;;;;;;;;;;;;;;25.14;18.62;98259.59;5097194;28;19911;-90
2023/12/28 02:37:33;;;;;;;;;;;;;;;25.18;18.68;98253.91;5096742;28;19928;-90
2023/12/28 02:39:59;;;;;;;;;;;;;;;24.19;19.33;98249.59;5096740;28;19923;-89
2023/12/28 02:42:25;;;;;;;;;;;;;;;24.16;19.43;98247.66;5097612;28;19920;-90
2023/12/28 02:44:51;;;;;;;;;;;;;;;24.51;18.92;98244.91;5097418;28;19920;-90
2023/12/28 02:47:17;;;;;;;;;;;;;;;24.74;18.96;98235.59;5095726;27;20070;-90
2023/12/28 02:49:43;;;;;;;;;;;;;;;24.67;18.44;98233.75;5097729;27;19931;-90
2023/12/28 02:52:08;;;;;;;;;;;;;;;24.64;18.11;98219.78;5100569;28;20272;-89
2023/12/28 02:54:35;;;;;;;;;;;;;;;23.63;19.08;98218.56;5099279;28;19969;-90
2023/12/28 02:57:01;;;;;;;;;;;;;;;23.35;19.85;98219.88;5096538;27;19932;-90
2023/12/28 02:59:27;;;;;;;;;;;;;;;23.23;20.19;98220.44;5097898;28;19920;-90
2023/12/28 03:01:53;;;;;;;;;;;;;;;23.43;20.03;98214.94;5099615;28;19954;-89
2023/12/28 03:04:19;;;;;;;;;;;;;;;23.68;19.92;98220.91;5096855;28;20007;-89
2023/12/28 03:06:46;;;;;;;;;;;;;;;23.30;20.05;98228.72;5101025;28;19965;-89
2023/12/28 03:09:12;;;;;;;;;;;;;;;23.31;20.03;98224.69;5099768;28;19927;-89
2023/12/28 03:11:38;;;;;;;;;;;;;;;23.51;19.91;98227.59;5098769;28;19926;-90
2023/12/28 03:14:04;;;;;;;;;;;;;;;23.74;19.47;98219.16;5095026;28;20294;-90
2023/12/28 03:16:33;;;;;;;;;;;;;;;23.72;19.96;98232.81;5096745;28;19924;-90
2023/12/28 03:18:59;;;;;;;;;;;;;;;24.05;19.44;98231.81;5095349;28;19951;-89
2023/12/28 03:21:25;;;;;;;;;;;;;;;24.27;19.22;98228.63;5096973;28;20452;-89
2023/12/28 03:23:51;;;;;;;;;;;;;;;23.97;18.76;98229.53;5096300;28;19923;-90
2023/12/28 03:26:17;;;;;;;;;;;;;;;24.01;19.42;98233.88;5099617;28;19926;-89
2023/12/28 03:28:43;;;;;;;;;;;;;;;23.67;19.86;98227.72;5100895;28;20255;-89
2023/12/28 03:31:09;;;;;;;;;;;;;;;23.66;19.79;98223.34;5096426;28;19916;-88
2023/12/28 03:33:35;;;;;;;;;;;;;;;23.87;20.13;98225.75;5098013;28;19934;-89
2023/12/28 03:36:01;;;;;;;;;;;;;;;24.29;19.73;98226.97;5097238;28;19961;-89
2023/12/28 03:38:27;;;;;;;;;;;;;;;24.58;19.27;98222.31;5098872;28;20282;-89
2023/12/28 03:40:54;;;;;;;;;;;;;;;24.81;18.44;98223.47;5097217;28;19967;-90
2023/12/28 03:43:20;;;;;;;;;;;;;;;24.92;18.00;98215.59;5097720;28;19928;-89
2023/12/28 03:45:46;;;;;;;;;;;;;;;23.91;18.08;98225.66;5082171;28;19924;-89
2023/12/28 03:48:12;;;;;;;;;;;;;;;23.33;19.56;98218.66;5094495;28;19928;-89
2023/12/28 03:50:38;;;;;;;;;;;;;;;22.84;20.52;98206.25;5099309;28;20346;-89
2023/12/28 03:53:04;;;;;;;;;;;;;;;22.83;20.42;98210.25;5100043;28;19928;-89
2023/12/28 03:55:30;;;;;;;;;;;;;;;23.09;20.79;98200.25;5106735;28;19926;-89
2023/12/28 03:57:56;;;;;;;;;;;;;;;23.25;20.65;98200.38;5108331;28;19951;-89
2023/12/28 04:00:23;;;;;;;;;;;;;;;23.41;20.68;98192.13;5102615;28;19926;-90
2023/12/28 04:02:49;;;;;;;;;;;;;;;23.32;20.69;98191.88;5094711;27;19920;-89
2023/12/28 04:05:15;;;;;;;;;;;;;;;23.26;21.38;98193.56;5095121;28;20012;-88
2023/12/28 04:07:41;;;;;;;;;;;;;;;23.90;19.99;98190.41;5101459;28;19927;-89
2023/12/28 04:10:07;;;;;;;;;;;;;;;23.63;20.02;98195.34;5087128;27;19934;-88
2023/12/28 04:12:33;;;;;;;;;;;;;;;23.85;20.26;98190.94;5108866;28;20378;-89
2023/12/28 04:14:59;;;;;;;;;;;;;;;24.05;19.66;98195.34;5090717;28;19931;-89
2023/12/28 04:17:25;;;;;;;;;;;;;;;24.29;19.67;98184.06;5105286;28;20295;-89
2023/12/28 04:19:51;;;;;;;;;;;;;;;24.44;19.62;98190.94;5100556;27;19928;-89
2023/12/28 04:22:17;;;;;;;;;;;;;;;24.34;19.32;98195.56;5099213;28;19920;-88
2023/12/28 04:24:43;;;;;;;;;;;;;;;23.84;20.32;98186.53;5100985;28;20429;-88
2023/12/28 04:27:09;;;;;;;;;;;;;;;23.71;20.11;98180.78;5102824;28;19924;-89
2023/12/28 04:29:35;;;;;;;;;;;;;;;24.12;19.55;98182.41;5102071;28;19920;-88
2023/12/28 04:32:01;;;;;;;;;;;;;;;24.03;19.31;98186.56;5102154;28;20095;-89
2023/12/28 04:34:27;;;;;;;;;;;;;;;23.95;19.84;98187.91;5096273;27;19920;-89
2023/12/28 04:36:53;;;;;;;;;;;;;;;24.16;19.85;98181.13;5101036;28;20027;-89
2023/12/28 04:39:19;;;;;;;;;;;;;;;24.25;19.74;98177.75;5101915;28;20152;-89
2023/12/28 04:41:45;;;;;;;;;;;;;;;24.44;19.53;98176.91;5100792;28;19924;-88
2023/12/28 04:44:11;;;;;;;;;;;;;;;23.96;19.39;98174.69;5102290;28;19961;-88
2023/12/28 04:46:37;;;;;;;;;;;;;;;23.77;19.81;98186.69;5100060;28;19920;-88
2023/12/28 04:49:03;;;;;;;;;;;;;;;23.73;19.85;98186.75;5099942;28;20341;-88
2023/12/28 04:51:29;;;;;;;;;;;;;;;23.85;20.08;98194.53;5100786;27;19915;-88
2023/12/28 04:53:55;;;;;;;;;;;;;;;24.19;19.48;98199.09;5101834;27;19920;-89
2023/12/28 04:56:21;;;;;;;;;;;;;;;24.14;19.39;98200.41;5109190;27;19919;-88
2023/12/28 04:58:47;;;;;;;;;;;;;;;24.22;18.81;98206.66;5104621;28;19923;-88
2023/12/28 05:01:13;;;;;;;;;;;;;;;24.47;19.16;98206.94;5096734;28;19965;-88
2023/12/28 05:03:39;;;;;;;;;;;;;;;24.64;18.38;98202.94;5105073;28;19920;-88
2023/12/28 05:06:05;;;;;;;;;;;;;;;24.41;18.25;98201.03;5086860;28;20026;-88
2023/12/28 05:08:31;;;;;;;;;;;;;;;23.98;18.65;98215.13;5100463;28;20076;-88
2023/12/28 05:10:57;;;;;;;;;;;;;;;23.69;18.89;98211.25;5102364;27;19920;-88
2023/12/28 05:13:23;;;;;;;;;;;;;;;23.33;19.09;98204.66;5102637;28;19926;-89
2023/12/28 05:15:49;;;;;;;;;;;;;;;22.96;19.66;98200.06;5104566;27;20311;-89
2023/12/28 05:18:15;;;;;;;;;;;;;;;22.59;20.05;98197.41;5106294;28;19919;-88
2023/12/28 05:20:41;;;;;;;;;;;;;;;22.84;20.16;98203.44;5095559;28;19920;-89
2023/12/28 05:23:07;;;;;;;;;;;;;;;23.04;19.80;98197.94;5088567;27;19920;-89
2023/12/28 05:25:33;;;;;;;;;;;;;;;22.84;20.54;98205.44;5100917;28;19965;-89
2023/12/28 05:27:59;;;;;;;;;;;;;;;22.91;20.19;98200.53;5102094;27;19928;-89
2023/12/28 05:30:25;;;;;;;;;;;;;;;23.03;20.46;98207.56;5101071;27;19928;-89
2023/12/28 05:32:51;;;;;;;;;;;;;;;23.39;20.15;98197.38;5110948;28;20432;-90
2023/12/28 05:35:17;;;;;;;;;;;;;;;23.58;19.77;98204.25;5108855;28;20417;-90
2023/12/28 05:37:43;;;;;;;;;;;;;;;23.77;19.05;98200.69;5104133;27;19921;-90
2023/12/28 05:40:09;;;;;;;;;;;;;;;23.81;18.95;98191.00;5106787;27;19916;-88
2023/12/28 05:42:35;;;;;;;;;;;;;;;23.80;19.43;98191.44;5100643;28;20399;-88
2023/12/28 05:45:01;;;;;;;;;;;;;;;23.30;20.14;98195.09;5080247;28;20057;-88
2023/12/28 05:47:27;;;;;;;;;;;;;;;22.84;20.56;98191.44;5098815;28;19996;-87
2023/12/28 05:49:53;;;;;;;;;;;;;;;23.00;21.08;98192.41;5096274;28;20017;-86
2023/12/28 05:52:19;;;;;;;;;;;;;;;23.49;19.91;98185.19;5099099;28;19916;-87
2023/12/28 05:54:45;;;;;;;;;;;;;;;23.69;19.98;98191.63;5094670;28;20368;-91
2023/12/28 05:57:11;;;;;;;;;;;;;;;23.93;19.92;98193.16;5098774;27;20299;-87
2023/12/28 05:59:39;;;;;;;;;;;;;;;24.12;19.63;98196.44;5095007;27;20384;-87
2023/12/28 06:02:05;;;;;;;;;;;;;;;24.11;19.31;98198.44;5098313;27;19920;-87
2023/12/28 06:04:33;;;;;;;;;;;;;;;24.32;19.26;98212.03;5093539;28;19958;-87
2023/12/28 06:06:59;;;;;;;;;;;;;;;23.87;20.05;98211.72;5098936;27;19920;-87
2023/12/28 06:09:27;;;;;;;;;;;;;;;23.70;19.97;98212.03;5098655;28;19977;-87
2023/12/28 06:11:53;;;;;;;;;;;;;;;23.77;19.84;98215.50;5097194;27;19916;-87
2023/12/28 06:14:19;;;;;;;;;;;;;;;23.33;20.50;98230.69;5099648;28;19973;-87
2023/12/28 06:16:45;;;;;;;;;;;;;;;23.25;21.02;98226.41;5099873;28;20671;-87
2023/12/28 06:19:12;;;;;;;;;;;;;;;23.60;20.23;98224.22;5098338;28;19920;-87
2023/12/28 06:21:38;;;;;;;;;;;;;;;23.88;20.14;98232.13;5086690;28;19919;-87
2023/12/28 06:24:04;;;;;;;;;;;;;;;23.89;19.48;98231.72;5099859;28;19919;-87
2023/12/28 06:26:30;;;;;;;;;;;;;;;23.92;19.79;98227.25;5097423;28;20012;-87
2023/12/28 06:28:56;;;;;;;;;;;;;;;23.90;19.79;98226.88;5097576;27;19932;-87
2023/12/28 06:31:22;;;;;;;;;;;;;;;23.90;20.02;98219.25;5097229;27;19924;-87
2023/12/28 06:33:48;;;;;;;;;;;;;;;23.36;20.67;98227.03;5101201;28;19959;-87
2023/12/28 06:36:14;;;;;;;;;;;;;;;23.19;20.40;98222.50;5101351;28;19920;-87
2023/12/28 06:38:40;;;;;;;;;;;;;;;23.40;20.39;98224.19;5099576;28;20387;-87
2023/12/28 06:41:15;;;;;;;;;;;;;;;23.88;20.20;98232.94;5098924;28;19947;-87
2023/12/28 06:43:41;;;;;;;;;;;;;;;23.90;19.89;98229.69;5096360;28;20406;-87
2023/12/28 06:46:07;;;;;;;;;;;;;;;23.78;20.06;98225.50;5100201;28;19920;-88
2023/12/28 06:48:33;;;;;;;;;;;;;;;23.36;20.22;98232.63;5099124;28;19974;-87
2023/12/28 06:50:59;;;;;;;;;;;;;;;23.44;20.59;98238.13;5099701;28;20408;-88
2023/12/28 06:53:25;;;;;;;;;;;;;;;23.58;20.63;98233.06;5099484;28;19926;-87
2023/12/28 06:55:51;;;;;;;;;;;;;;;23.62;20.42;98239.41;5099100;28;20290;-87
2023/12/28 06:58:18;;;;;;;;;;;;;;;23.67;20.35;98240.94;5099632;28;19924;-87
2023/12/28 07:00:44;;;;;;;;;;;;;;;23.81;20.02;98247.06;5097363;28;19934;-87
2023/12/28 07:03:10;;;;;;;;;;;;;;;23.94;19.83;98258.47;5099756;28;20038;-87
2023/12/28 07:05:36;;;;;;;;;;;;;;;24.19;19.56;98249.59;5100071;28;20028;-87
2023/12/28 07:08:02;;;;;;;;;;;;;;;24.16;20.02;98254.06;5097328;28;19920;-87
2023/12/28 07:10:28;;;;;;;;;;;;;;;24.19;19.71;98244.78;5096123;28;19916;-87
2023/12/28 07:12:54;;;;;;;;;;;;;;;24.18;19.72;98246.00;5100057;28;20272;-87
2023/12/28 07:15:20;;;;;;;;;;;;;;;24.38;19.58;98241.19;5096964;28;19920;-87
2023/12/28 07:17:46;;;;;;;;;;;;;;;24.35;19.89;98232.84;5097542;28;20302;-87
2023/12/28 07:20:13;;;;;;;;;;;;;;;23.35;20.59;98238.69;5097919;28;19948;-87
2023/12/28 07:22:39;;;;;;;;;;;;;;;22.60;21.70;98244.56;5099435;28;19931;-87
2023/12/28 07:25:06;;;;;;;;;;;;;;;22.78;21.78;98247.13;5099182;28;19927;-87
2023/12/28 07:27:35;;;;;;;;;;;;;;;23.17;21.71;98246.56;5100353;28;19968;-87
2023/12/28 07:30:01;;;;;;;;;;;;;;;23.46;21.58;98246.91;5101236;27;19984;-87
2023/12/28 07:32:28;;;;;;;;;;;;;;;24.17;20.83;98246.44;5101946;27;19930;-87
2023/12/28 07:34:54;;;;;;;;;;;;;;;24.18;21.03;98248.03;5103559;27;19931;-87
2023/12/28 07:37:21;;;;;;;;;;;;;;;24.11;20.89;98265.00;5103232;28;19927;-87
2023/12/28 07:39:47;;;;;;;;;;;;;;;24.25;20.70;98256.31;5103352;27;20011;-86
2023/12/28 07:42:13;;;;;;;;;;;;;;;24.44;20.80;98255.50;5104356;27;19954;-87
2023/12/28 07:44:39;;;;;;;;;;;;;;;25.05;20.05;98228.50;5097861;27;19931;-87
2023/12/28 07:47:05;;;;;;;;;;;;;;;25.51;19.56;98238.63;5100132;27;19920;-87
2023/12/28 07:49:31;;;;;;;;;;;;;;;25.85;19.26;98243.81;5102922;27;19935;-87
2023/12/28 07:51:57;;;;;;;;;;;;;;;26.06;19.09;98231.97;5103492;27;19920;-87
2023/12/28 07:54:23;;;;;;;;;;;;;;;25.75;20.04;98222.38;5103985;28;19932;-86
2023/12/28 07:56:49;;;;;;;;;;;;;;;25.72;19.78;98228.91;5100604;28;19974;-86
2023/12/28 07:59:15;;;;;;;;;;;;;;;25.83;19.51;98237.84;5101346;28;19919;-86
2023/12/28 08:01:41;;;;;;;;;;;;;;;26.02;19.57;98234.09;5101720;28;20345;-86
2023/12/28 08:04:08;;;;;;;;;;;;;;;25.97;19.41;98243.88;5097171;27;20304;-87
2023/12/28 08:06:34;;;;;;;;;;;;;;;25.83;19.48;98237.84;5102694;28;19927;-86
2023/12/28 08:09:00;;;;;;;;;;;;;;;26.08;19.53;98233.13;5101848;28;20379;-86
2023/12/28 08:11:26;;;;;;;;;;;;;;;26.22;19.79;98236.78;5101554;28;19923;-87
2023/12/28 08:13:52;;;;;;;;;;;;;;;26.22;19.74;98231.16;5100072;28;19935;-85
2023/12/28 08:16:19;;;;;;;;;;;;;;;26.37;19.61;98232.34;5102223;28;19927;-85
2023/12/28 08:18:45;;;;;;;;;;;;;;;26.01;20.14;98226.88;5100448;28;19924;-86
2023/12/28 08:21:11;;;;;;;;;;;;;;;26.06;19.97;98223.53;5101138;28;19924;-86
2023/12/28 08:23:37;;;;;;;;;;;;;;;26.28;19.74;98227.34;5101729;28;19924;-86
2023/12/28 08:26:03;;;;;;;;;;;;;;;26.39;19.29;98222.22;5102250;28;19915;-86
2023/12/28 08:28:29;;;;;;;;;;;;;;;26.04;19.61;98223.97;5100702;28;19974;-86
2023/12/28 08:30:56;;;;;;;;;;;;;;;25.94;19.62;98233.50;5100853;28;19947;-86
2023/12/28 08:33:22;;;;;;;;;;;;;;;26.34;19.91;98230.41;5084589;27;19928;-86
2023/12/28 08:35:48;;;;;;;;;;;;;;;26.54;19.42;98229.00;5100955;28;20662;-86
2023/12/28 08:38:14;;;;;;;;;;;;;;;26.13;19.89;98239.47;5099788;28;19965;-86
2023/12/28 08:40:40;;;;;;;;;;;;;;;25.92;20.13;98229.53;5101744;28;20011;-86
2023/12/28 08:43:06;;;;;;;;;;;;;;;25.85;20.27;98232.56;5101030;27;19924;-86
2023/12/28 08:45:34;;;;;;;;;;;;;;;26.47;19.43;98229.22;5099380;27;19928;-85
2023/12/28 08:48:00;;;;;;;;;;;;;;;26.96;19.91;98240.22;5099242;28;19967;-87
2023/12/28 08:50:26;;;;;;;;;;;;;;;27.31;19.91;98231.44;5101036;27;20457;-87
2023/12/28 08:52:52;;;;;;;;;;;;;;;27.43;19.68;98235.53;5100420;28;19920;-86
2023/12/28 08:55:18;;;;;;;;;;;;;;;27.55;19.59;98237.53;5099222;28;19924;-87
2023/12/28 08:57:44;;;;;;;;;;;;;;;27.74;19.57;98238.50;5099782;27;19935;-87
2023/12/28 09:00:10;;;;;;;;;;;;;;;27.92;19.55;98231.00;5099707;28;19920;-87
2023/12/28 09:02:37;;;;;;;;;;;;;;;27.96;18.96;98230.88;5099519;28;20692;-87
2023/12/28 09:05:03;;;;;;;;;;;;;;;27.79;18.93;98230.28;5100636;28;20014;-87
2023/12/28 09:07:29;;;;;;;;;;;;;;;27.92;18.86;98228.19;5079080;28;20316;-87
2023/12/28 09:09:55;;;;;;;;;;;;;;;27.77;19.37;98229.16;5102388;27;19923;-88
2023/12/28 09:12:21;;;;;;;;;;;;;;;27.80;19.17;98225.41;5099150;27;19927;-88
2023/12/28 09:14:47;;;;;;;;;;;;;;;28.05;19.16;98220.47;5098198;27;19928;-88
2023/12/28 09:17:13;;;;;;;;;;;;;;;28.20;19.59;98206.66;5098442;27;20003;-88
2023/12/28 09:19:39;;;;;;;;;;;;;;;28.30;19.30;98204.69;5099154;27;19920;-88
2023/12/28 09:22:05;;;;;;;;;;;;;;;28.37;19.26;98208.03;5097769;28;20022;-87
2023/12/28 09:24:31;;;;;;;;;;;;;;;28.32;18.94;98205.00;5100687;27;20306;-89
2023/12/28 09:26:57;;;;;;;;;;;;;;;28.30;19.66;98197.00;5095833;27;19932;-86
2023/12/28 09:29:23;;;;;;;;;;;;;;;28.32;19.06;98202.19;5098143;28;19920;-87
2023/12/28 09:31:49;;;;;;;;;;;;;;;28.38;18.74;98203.19;5101276;28;19963;-87
2023/12/28 09:34:15;;;;;;;;;;;;;;;28.48;18.11;98197.13;5080660;28;19975;-87
2023/12/28 09:36:41;;;;;;;;;;;;;;;28.51;18.25;98189.75;5098915;28;19972;-87
2023/12/28 09:39:09;;;;;;;;;;;;;;;28.61;18.05;98186.53;5081553;28;20410;-88
2023/12/28 09:41:38;;;;;;;;;;;;;;;28.37;18.07;98188.25;5096344;27;20458;-87
2023/12/28 09:44:04;;;;;;;;;;;;;;;27.83;18.88;98194.25;5100806;27;19928;-87
2023/12/28 09:46:31;;;;;;;;;;;;;;;27.71;18.81;98192.25;5094789;28;20332;-88
2023/12/28 09:48:57;;;;;;;;;;;;;;;28.12;18.97;98177.13;5097356;28;19975;-88
2023/12/28 09:51:25;;;;;;;;;;;;;;;28.41;18.36;98177.63;5096803;28;19924;-87
2023/12/28 09:53:51;;;;;;;;;;;;;;;28.89;18.88;98178.22;5100754;28;19932;-88
2023/12/28 09:56:18;;;;;;;;;;;;;;;28.88;17.97;98176.63;5099315;28;19927;-87
2023/12/28 09:58:46;;;;;;;;;;;;;;;28.59;18.41;98182.63;5098788;28;19966;-88
2023/12/28 10:01:13;;;;;;;;;;;;;;;28.82;17.66;98175.66;5084217;28;19920;-89
2023/12/28 10:03:39;;;;;;;;;;;;;;;29.12;18.24;98169.19;5098187;28;19970;-88
2023/12/28 10:06:08;;;;;;;;;;;;;;;29.08;18.30;98177.03;5099192;28;19928;-88
2023/12/28 10:08:35;;;;;;;;;;;;;;;28.96;17.59;98169.44;5100710;28;19927;-88
2023/12/28 10:11:02;;;;;;;;;;;;;;;27.94;19.75;98180.53;5079960;28;19989;-89
2023/12/28 10:13:28;;;;;;;;;;;;;;;24.61;29.34;98190.56;5097683;28;19935;-89
2023/12/28 10:15:58;;;;;;;;;;;;;;;23.40;30.39;98193.38;5095938;28;19986;-88
2023/12/28 10:18:24;;;;;;;;;;;;;;;22.48;24.86;98191.13;5099351;27;20449;-89
2023/12/28 10:20:50;;;;;;;;;;;;;;;22.81;29.33;98189.50;5097817;28;20007;-90
2023/12/28 10:23:17;;;;;;;;;;;;;;;22.63;25.92;98193.38;5098436;28;20418;-88
2023/12/28 10:25:43;;;;;;;;;;;;;;;23.31;25.02;98190.28;5097461;28;19916;-89
2023/12/28 10:28:09;;;;;;;;;;;;;;;24.84;22.55;98180.44;5098091;28;19946;-88
2023/12/28 10:30:35;;;;;;;;;;;;;;;25.31;22.23;98176.09;5101063;28;19920;-89
2023/12/28 10:33:04;;;;;;;;;;;;;;;26.70;20.37;98168.97;5099300;28;19931;-89
2023/12/28 10:35:30;;;;;;;;;;;;;;;25.49;21.80;98179.25;5098307;28;19955;-90
2023/12/28 10:37:59;;;;;;;;;;;;;;;26.39;21.40;98176.38;5099580;28;19920;-90
2023/12/28 10:40:26;;;;;;;;;;;;;;;26.81;20.29;98169.47;5095984;28;19931;-90
2023/12/28 10:42:54;;;;;;;;;;;;;;;27.58;19.70;98163.31;5103578;28;20291;-90
2023/12/28 10:45:24;;;;;;;;;;;;;;;28.08;19.13;98159.50;5092735;28;19928;-89
2023/12/28 10:48:10;;;;;;;;;;;;;;;28.39;18.66;98162.38;5098385;28;19924;-89
2023/12/28 10:50:41;;;;;;;;;;;;;;;28.82;18.41;98165.16;5096634;28;20793;-89
2023/12/28 10:53:20;;;;;;;;;;;;;;;28.89;18.55;98158.44;5095094;28;19930;-89
2023/12/28 10:56:05;;;;;;;;;;;;;;;29.28;18.35;98164.09;5077412;28;19955;-90
2023/12/28 10:58:39;;;;;;;;;;;;;;;29.35;18.37;98163.78;5100162;28;19931;-90
2023/12/28 11:01:09;;;;;;;;;;;;;;;29.46;18.23;98159.69;5100214;28;19928;-90
2023/12/28 11:03:37;;;;;;;;;;;;;;;28.76;18.48;98167.00;5099734;28;19920;-91
2023/12/28 11:06:05;;;;;;;;;;;;;;;28.46;19.52;98174.19;5098028;28;19965;-91
2023/12/28 11:08:32;;;;;;;;;;;;;;;28.04;19.74;98170.94;5099099;28;20018;-89
2023/12/28 11:11:01;;;;;;;;;;;;;;;25.56;26.99;98181.09;5098775;28;19928;-90
2023/12/28 11:13:29;;;;;;;;;;;;;;;24.99;23.59;98181.72;5097489;28;20404;-89
2023/12/28 11:15:56;;;;;;;;;;;;;;;25.19;23.18;98182.41;5099886;28;19920;-89
2023/12/28 11:18:23;;;;;;;;;;;;;;;24.89;23.47;98186.34;5097568;28;19920;-89
2023/12/28 11:20:50;;;;;;;;;;;;;;;25.56;22.79;98179.06;5097774;28;19927;-88
2023/12/28 11:23:16;;;;;;;;;;;;;;;26.73;21.50;98174.50;5094485;28;19947;-89
2023/12/28 11:25:43;;;;;;;;;;;;;;;27.54;20.30;98159.03;5095291;28;19917;-89
2023/12/28 11:28:12;;;;;;;;;;;;;;;28.28;19.58;98156.34;5098204;28;20298;-87
2023/12/28 11:30:38;;;;;;;;;;;;;;;28.96;19.26;98147.63;5100758;28;19920;-88
2023/12/28 11:33:05;;;;;;;;;;;;;;;29.59;18.34;98152.69;5098422;28;19916;-88
2023/12/28 11:35:34;;;;;;;;;;;;;;;29.98;18.50;98148.13;5098944;28;19934;-88
2023/12/28 11:38:03;;;;;;;;;;;;;;;30.00;18.07;98142.78;5097071;28;19923;-88
2023/12/28 11:40:29;;;;;;;;;;;;;;;29.25;18.74;98133.91;5098214;28;20139;-88
2023/12/28 11:42:55;;;;;;;;;;;;;;;29.42;18.56;98140.06;5098897;28;19999;-88
2023/12/28 11:45:22;;;;;;;;;;;;;;;29.68;18.30;98134.91;5077482;28;20007;-87
2023/12/28 11:48:01;;;;;;;;;;;;;;;29.02;18.03;98123.13;5099276;28;20336;-88
2023/12/28 11:50:27;;;;;;;;;;;;;;;28.63;18.15;98104.94;5096417;28;19947;-88
2023/12/28 11:52:53;;;;;;;;;;;;;;;28.85;18.53;98113.34;5100322;28;19920;-88
2023/12/28 11:55:23;;;;;;;;;;;;;;;28.11;18.33;98116.25;5099973;28;19920;-88
2023/12/28 11:57:49;;;;;;;;;;;;;;;28.17;18.23;98120.03;5097554;28;19931;-89
2023/12/28 12:00:20;;;;;;;;;;;;;;;28.89;17.76;98122.47;5098806;28;20427;-88
2023/12/28 12:02:46;;;;;;;;;;;;;;;28.75;17.58;98112.50;5099003;28;20014;-88
2023/12/28 12:05:12;;;;;;;;;;;;;;;28.18;18.36;98132.13;5098001;28;20399;-88
2023/12/28 12:07:39;;;;;;;;;;;;;;;28.79;18.01;98132.16;5098969;28;20389;-88
2023/12/28 12:10:05;;;;;;;;;;;;;;;26.93;19.99;98131.25;5095304;28;19920;-89
2023/12/28 12:12:32;;;;;;;;;;;;;;;27.31;20.03;98124.31;5097380;28;24859;-88
2023/12/28 12:14:58;;;;;;;;;;;;;;;27.07;19.78;98117.47;5097117;27;19947;-89
2023/12/28 12:17:24;;;;;;;;;;;;;;;28.54;18.20;98121.81;5087471;28;20426;-90
2023/12/28 12:19:55;;;;;;;;;;;;;;;29.50;17.22;98113.03;5096859;27;19927;-90
2023/12/28 12:22:21;;;;;;;;;;;;;;;29.35;17.24;98112.88;5102243;28;19990;-88
2023/12/28 12:24:48;;;;;;;;;;;;;;;29.98;16.62;98114.97;5103626;28;20318;-89
2023/12/28 12:27:17;;;;;;;;;;;;;;;30.45;16.54;98107.97;5101983;27;19947;-90
2023/12/28 12:29:43;;;;;;;;;;;;;;;30.12;17.05;98110.69;5101013;27;19928;-88
2023/12/28 12:32:10;;;;;;;;;;;;;;;29.55;16.93;98101.09;5099854;27;19923;-88
2023/12/28 12:34:37;;;;;;;;;;;;;;;29.75;16.89;98095.75;5098625;28;19920;-88
2023/12/28 12:37:03;;;;;;;;;;;;;;;29.46;16.71;98097.47;5103024;28;19922;-90
2023/12/28 12:39:29;;;;;;;;;;;;;;;29.24;17.00;98092.72;5097515;27;20396;-94
2023/12/28 12:41:56;;;;;;;;;;;;;;;29.25;16.83;98093.50;5103055;28;20430;-93
2023/12/28 12:44:23;;;;;;;;;;;;;;;29.43;16.31;98102.00;5102681;27;19928;-93